Time;durP1;ratioP1;P1;durP2;ratioP2;P2;SDS_P1;SDS_P2;PMS_P1;PMS_P2;Temp;Humidity;BMP_temperature;BMP_pressure;BME280_temperature;BME280_humidity;BME280_pressure;Samples;Min_cycle;Max_cycle;Signal;HPM_P1;HPM_P2
2022/01/25 00:29:08;;;;;;;40.33;17.70;;;;;;;3.70;74.65;102288.75;8836138;33;20241;-74
2022/01/25 00:34:11;;;;;;;41.95;18.58;;;;;;;3.57;74.41;102285.50;8836375;33;20189;-76
2022/01/25 00:39:14;;;;;;;36.42;17.27;;;;;;;3.44;74.67;102282.22;8836367;33;20232;-74
2022/01/25 00:44:19;;;;;;;35.35;16.42;;;;;;;3.39;74.97;102278.78;8823770;33;20182;-76
2022/01/25 00:49:27;;;;;;;36.88;17.35;;;;;;;3.32;75.09;102277.16;8836103;33;20189;-74
2022/01/25 00:54:32;;;;;;;35.25;17.58;;;;;;;3.38;75.20;102266.41;8801942;33;20277;-74
2022/01/25 00:59:37;;;;;;;41.57;18.17;;;;;;;3.43;75.01;102269.84;8775644;33;20566;-73
2022/01/25 01:04:42;;;;;;;35.88;17.58;;;;;;;3.45;75.05;102268.00;8750994;33;20182;-74
2022/01/25 01:09:49;;;;;;;39.58;17.52;;;;;;;3.43;74.89;102272.50;8775079;33;21184;-74
2022/01/25 01:15:09;;;;;;;38.40;16.75;;;;;;;3.44;75.10;102260.09;8774965;33;20196;-74
2022/01/25 01:31:01;;;;;;;36.15;16.80;;;;;;;3.46;75.03;102258.28;8774884;33;20840;-75
2022/01/25 01:41:46;;;;;;;36.38;16.92;;;;;;;3.46;75.29;102242.34;8771571;33;20243;-76
2022/01/25 01:47:06;;;;;;;44.28;19.77;;;;;;;3.43;75.06;102243.28;8774703;33;21897;-75
2022/01/25 01:52:11;;;;;;;38.38;17.73;;;;;;;3.49;75.67;102236.94;8774602;33;20167;-74
2022/01/25 01:57:15;;;;;;;43.92;18.50;;;;;;;3.53;75.54;102225.34;8774464;33;20187;-74
2022/01/25 02:02:19;;;;;;;41.58;17.90;;;;;;;3.52;75.17;102222.72;8774070;33;20247;-75
2022/01/25 02:07:23;;;;;;;42.75;19.05;;;;;;;3.50;75.00;102220.09;8774668;33;20186;-75
2022/01/25 02:12:26;;;;;;;44.15;18.30;;;;;;;3.50;74.68;102212.97;8774236;33;20267;-75
2022/01/25 02:17:53;;;;;;;38.65;17.00;;;;;;;3.43;74.75;102214.03;8774201;33;20179;-75
2022/01/25 02:22:57;;;;;;;40.45;18.17;;;;;;;3.42;74.97;102220.25;8773036;33;20606;-74
2022/01/25 02:28:00;;;;;;;41.72;17.98;;;;;;;3.28;74.86;102219.69;8773701;33;20148;-75
2022/01/25 02:33:04;;;;;;;40.53;18.27;;;;;;;3.31;74.52;102213.44;8773142;33;20274;-75
2022/01/25 02:38:09;;;;;;;39.63;17.85;;;;;;;3.27;74.89;102216.16;8774464;33;20175;-77
2022/01/25 02:43:15;;;;;;;46.17;18.50;;;;;;;3.36;74.93;102217.75;8774039;33;20199;-75
2022/01/25 02:48:30;;;;;;;44.90;18.67;;;;;;;3.50;75.15;102215.63;8778079;33;20399;-75
2022/01/25 02:53:35;;;;;;;39.10;17.10;;;;;;;3.52;74.68;102209.44;8778809;33;20943;-75
2022/01/25 02:58:38;;;;;;;43.58;19.38;;;;;;;3.48;74.69;102219.25;8777893;33;20191;-75
2022/01/25 03:03:41;;;;;;;41.95;17.92;;;;;;;3.50;74.81;102212.13;8778704;33;20672;-74
2022/01/25 03:08:47;;;;;;;38.42;17.95;;;;;;;3.47;74.59;102210.41;8778359;33;20211;-75
2022/01/25 03:13:52;;;;;;;41.67;18.05;;;;;;;3.50;74.50;102196.16;8781329;33;20236;-75
2022/01/25 03:18:57;;;;;;;41.08;17.98;;;;;;;3.48;74.65;102198.88;8784830;33;20248;-74
2022/01/25 03:24:02;;;;;;;43.08;18.13;;;;;;;3.39;74.77;102203.50;8779183;33;20240;-74
2022/01/25 03:29:05;;;;;;;37.60;17.45;;;;;;;3.43;74.93;102194.59;8778228;33;20756;-74
2022/01/25 03:34:09;;;;;;;37.47;17.02;;;;;;;3.48;74.48;102195.31;8753004;33;20181;-75
2022/01/25 03:39:13;;;;;;;38.60;17.33;;;;;;;3.46;74.51;102191.84;8777574;33;20719;-76
2022/01/25 03:44:17;;;;;;;38.25;17.08;;;;;;;3.34;75.57;102190.31;8777800;33;20980;-75
2022/01/25 03:54:43;;;;;;;38.80;17.90;;;;;;;3.34;74.26;102181.47;8777690;33;20167;-75
2022/01/25 03:59:47;;;;;;;46.42;19.02;;;;;;;3.31;73.87;102187.72;8777192;33;20240;-75
2022/01/25 04:04:50;;;;;;;39.47;17.27;;;;;;;3.39;74.15;102192.88;8777433;33;20217;-76
2022/01/25 04:09:55;;;;;;;45.15;18.67;;;;;;;3.28;74.56;102185.16;8777230;33;20159;-75
2022/01/25 04:15:00;;;;;;;41.25;18.20;;;;;;;3.28;73.85;102195.78;8777739;33;20190;-75
2022/01/25 04:20:16;;;;;;;44.10;18.52;;;;;;;3.44;73.19;102204.28;8776526;33;20233;-75
2022/01/25 04:25:20;;;;;;;42.20;18.80;;;;;;;3.49;72.18;102191.78;8777091;33;21145;-76
2022/01/25 04:30:24;;;;;;;46.88;18.50;;;;;;;3.53;71.94;102193.44;8776774;33;21058;-74
2022/01/25 04:35:43;;;;;;;44.45;19.52;;;;;;;3.57;71.30;102184.50;8777109;33;20178;-74
2022/01/25 04:51:58;;;;;;;48.40;19.15;;;;;;;3.41;72.00;102181.31;8672329;33;20710;-75
2022/01/25 04:57:16;;;;;;;45.17;18.63;;;;;;;3.49;72.21;102179.34;8785701;33;20492;-75
2022/01/25 05:02:31;;;;;;;44.67;19.42;;;;;;;3.47;72.69;102182.97;8783903;33;20154;-75
2022/01/25 05:07:41;;;;;;;50.70;21.35;;;;;;;3.05;74.86;102181.22;8776568;33;20413;-75
2022/01/25 05:12:50;;;;;;;50.38;21.48;;;;;;;3.25;74.55;102179.91;8775489;33;20530;-75
2022/01/25 05:18:14;;;;;;;54.05;22.00;;;;;;;3.27;75.06;102180.75;8775683;33;20959;-75
2022/01/25 05:23:17;;;;;;;49.30;21.77;;;;;;;3.26;74.96;102174.56;8776019;33;21752;-74
2022/01/25 05:28:21;;;;;;;54.33;23.55;;;;;;;3.34;74.64;102179.69;8774922;33;20645;-75
2022/01/25 05:33:24;;;;;;;59.30;24.48;;;;;;;3.30;74.67;102171.84;8774999;33;21004;-75
2022/01/25 05:38:27;;;;;;;61.30;25.77;;;;;;;3.25;74.64;102172.81;8776205;33;20734;-74
2022/01/25 05:49:09;;;;;;;60.88;24.98;;;;;;;3.27;73.94;102178.09;8605691;33;20781;-75
2022/01/25 05:54:12;;;;;;;67.82;26.92;;;;;;;3.11;74.07;102176.69;8745565;33;20255;-75
2022/01/25 05:59:16;;;;;;;59.63;25.00;;;;;;;3.31;73.72;102178.91;8749419;33;20534;-75
2022/01/25 06:04:21;;;;;;;55.90;24.17;;;;;;;3.34;73.27;102184.13;8775551;33;20233;-75
2022/01/25 06:09:24;;;;;;;64.43;27.10;;;;;;;3.36;73.01;102183.19;8774797;33;20182;-75
2022/01/25 06:14:29;;;;;;;60.92;25.92;;;;;;;3.34;73.02;102185.00;8774869;33;20140;-75
2022/01/25 06:19:32;;;;;;;57.20;25.40;;;;;;;3.37;72.91;102190.25;8776044;33;20135;-75
2022/01/25 06:24:35;;;;;;;54.28;24.27;;;;;;;3.35;72.69;102194.75;8780767;33;20182;-75
2022/01/25 06:29:39;;;;;;;59.33;25.15;;;;;;;3.33;72.72;102195.69;8779403;33;20260;-75
2022/01/25 06:34:43;;;;;;;56.58;23.80;;;;;;;3.31;72.42;102197.50;8722609;33;20187;-74
2022/01/25 06:39:47;;;;;;;58.17;24.70;;;;;;;3.30;71.83;102196.63;8727767;33;20220;-74
2022/01/25 06:44:56;;;;;;;59.95;24.30;;;;;;;3.27;71.59;102197.56;8780130;33;20213;-75
2022/01/25 06:49:59;;;;;;;62.63;25.00;;;;;;;3.31;71.50;102205.47;8779529;33;20187;-75
2022/01/25 06:55:02;;;;;;;57.17;25.10;;;;;;;3.30;71.51;102212.56;8779638;33;20223;-75
2022/01/25 07:00:12;;;;;;;52.35;23.27;;;;;;;3.30;71.45;102214.34;8778361;33;20658;-75
2022/01/25 07:05:15;;;;;;;56.67;23.55;;;;;;;3.27;70.83;102212.63;8779463;33;20883;-75
2022/01/25 07:10:18;;;;;;;62.28;22.98;;;;;;;3.23;70.43;102218.91;8778857;33;20846;-76
2022/01/25 07:15:23;;;;;;;55.38;24.13;;;;;;;3.23;70.22;102214.47;8779485;33;20961;-75
2022/01/25 07:20:26;;;;;;;49.15;22.52;;;;;;;3.18;69.66;102224.34;8778687;33;21809;-75
2022/01/25 07:25:30;;;;;;;52.67;22.80;;;;;;;3.20;69.81;102213.66;8778301;33;20211;-75
2022/01/25 07:30:34;;;;;;;45.08;17.15;;;;;;;3.40;70.78;102211.47;8777398;33;20183;-75
2022/01/25 07:35:39;;;;;;;50.40;20.25;;;;;;;3.57;69.76;102215.53;8778027;33;20186;-76
2022/01/25 07:40:45;;;;;;;46.13;20.15;;;;;;;3.81;68.47;102212.28;8777860;33;20325;-73
2022/01/25 07:45:54;;;;;;;47.30;20.55;;;;;;;3.79;66.31;102208.81;8778163;33;20194;-75
2022/01/25 07:50:58;;;;;;;47.47;21.35;;;;;;;3.49;66.43;102219.22;8778466;33;20150;-76
2022/01/25 07:56:01;;;;;;;48.15;19.52;;;;;;;3.45;66.83;102227.28;8777905;33;20696;-74
2022/01/25 08:01:06;;;;;;;46.42;20.23;;;;;;;3.36;67.54;102224.84;8782492;33;20317;-76
2022/01/25 08:06:10;;;;;;;42.65;17.67;;;;;;;3.34;67.47;102226.66;8779260;33;20159;-76
2022/01/25 08:11:37;;;;;;;44.53;19.50;;;;;;;3.33;67.91;102228.44;8728884;33;20586;-76
2022/01/25 08:16:59;;;;;;;43.63;19.17;;;;;;;3.22;68.42;102233.97;8769948;33;20871;-76
2022/01/25 08:22:07;;;;;;;48.75;19.85;;;;;;;3.31;68.02;102229.38;8776807;33;20988;-76
2022/01/25 08:27:11;;;;;;;57.03;22.95;;;;;;;3.34;68.02;102227.50;8777754;33;20845;-73
2022/01/25 08:32:35;;;;;;;47.38;20.60;;;;;;;3.39;68.25;102230.09;8777664;33;20453;-76
2022/01/25 08:37:44;;;;;;;50.75;22.02;;;;;;;3.40;68.18;102224.75;8770950;33;20178;-76
2022/01/25 08:43:12;;;;;;;45.20;18.83;;;;;;;3.34;68.22;102221.31;8776798;33;20970;-75
2022/01/25 08:48:20;;;;;;;45.75;19.75;;;;;;;3.39;67.75;102230.09;8777174;33;20830;-76
2022/01/25 08:53:46;;;;;;;49.17;19.08;;;;;;;3.49;67.75;102232.50;8485347;34;20190;-76
2022/01/25 08:59:06;;;;;;;36.72;15.40;;;;;;;3.44;66.93;102229.06;8488643;34;20178;-75
2022/01/25 09:04:10;;;;;;;38.80;17.15;;;;;;;3.42;66.67;102237.97;8493460;34;20190;-76
2022/01/25 09:09:14;;;;;;;36.63;16.02;;;;;;;3.48;66.79;102240.50;8487162;34;20294;-76
2022/01/25 09:14:17;;;;;;;40.22;16.95;;;;;;;3.42;67.18;102251.25;8486215;34;20289;-75
2022/01/25 09:19:21;;;;;;;40.13;16.35;;;;;;;3.42;67.12;102235.31;8764154;33;20988;-75
2022/01/25 09:24:24;;;;;;;39.10;16.33;;;;;;;3.46;67.04;102250.31;8776154;33;20182;-76
2022/01/25 09:29:27;;;;;;;36.47;16.23;;;;;;;3.47;67.21;102244.94;8776465;33;20256;-75
2022/01/25 09:34:32;;;;;;;38.75;16.50;;;;;;;3.58;67.16;102247.38;8782412;33;20256;-75
2022/01/25 09:39:35;;;;;;;38.70;16.50;;;;;;;3.63;67.15;102257.91;8800527;33;20186;-75
2022/01/25 09:44:41;;;;;;;36.15;15.63;;;;;;;3.58;67.06;102259.78;8798642;33;20178;-76
2022/01/25 09:49:45;;;;;;;38.90;16.95;;;;;;;3.62;66.99;102262.34;8808786;33;20199;-76
2022/01/25 09:54:54;;;;;;;38.25;16.35;;;;;;;3.62;67.10;102261.44;8833807;33;20414;-76
2022/01/25 09:59:58;;;;;;;38.90;16.85;;;;;;;3.61;67.21;102265.03;8834129;33;20579;-76
2022/01/25 10:05:17;;;;;;;43.65;17.63;;;;;;;3.64;66.77;102254.34;8834463;33;20174;-76
2022/01/25 10:10:21;;;;;;;35.55;15.82;;;;;;;3.63;66.84;102258.78;8832323;33;20546;-75
2022/01/25 10:15:28;;;;;;;40.00;16.15;;;;;;;3.71;66.94;102259.47;8834040;33;20486;-76
2022/01/25 10:20:52;;;;;;;36.15;15.00;;;;;;;3.76;67.00;102256.72;8833780;33;20134;-75
2022/01/25 10:25:55;;;;;;;37.83;16.10;;;;;;;3.79;66.85;102267.28;8833984;33;20650;-76
2022/01/25 10:31:01;;;;;;;35.63;15.02;;;;;;;3.84;67.20;102261.84;8834554;33;20763;-76
2022/01/25 10:36:16;;;;;;;39.50;15.73;;;;;;;3.68;66.69;102264.00;8833216;33;20192;-76
2022/01/25 10:41:22;;;;;;;37.45;14.80;;;;;;;3.45;67.44;102261.81;8811388;33;20797;-76
2022/01/25 10:46:27;;;;;;;33.50;15.05;;;;;;;3.52;67.64;102268.78;8802233;33;20159;-75
2022/01/25 10:51:37;;;;;;;36.05;15.35;;;;;;;3.54;67.45;102261.66;8778447;33;20170;-73
2022/01/25 10:56:44;;;;;;;36.90;16.23;;;;;;;3.40;67.70;102261.94;8778914;33;20706;-76
2022/01/25 11:01:52;;;;;;;41.58;17.67;;;;;;;3.22;67.85;102267.63;8766331;33;20185;-74
2022/01/25 11:07:04;;;;;;;37.60;16.25;;;;;;;3.40;68.37;102263.69;8806725;33;20500;-74
2022/01/25 11:12:12;;;;;;;36.67;16.15;;;;;;;3.54;67.92;102258.09;8780216;33;20885;-75
2022/01/25 11:17:15;;;;;;;36.25;15.18;;;;;;;3.61;67.28;102262.38;8778863;33;20351;-74
2022/01/25 11:22:21;;;;;;;36.47;15.63;;;;;;;3.61;67.27;102265.03;8783351;33;20182;-75
2022/01/25 11:27:26;;;;;;;37.63;16.05;;;;;;;3.58;67.38;102251.81;8789313;33;20517;-74
2022/01/25 11:32:34;;;;;;;40.60;16.33;;;;;;;3.63;67.63;102250.81;8783393;33;20178;-75
2022/01/25 11:37:41;;;;;;;38.33;16.45;;;;;;;3.43;68.34;102240.63;8780069;33;20152;-76
2022/01/25 11:42:49;;;;;;;40.15;16.00;;;;;;;3.51;68.38;102240.44;8780418;33;20698;-74
2022/01/25 11:47:54;;;;;;;44.13;19.15;;;;;;;3.81;68.21;102240.66;8778937;33;20232;-74
2022/01/25 11:53:05;;;;;;;39.50;16.45;;;;;;;3.88;67.93;102232.50;8777346;33;20764;-74
2022/01/25 11:58:11;;;;;;;39.33;16.60;;;;;;;3.79;66.97;102237.19;8777885;33;20273;-75
2022/01/25 12:03:28;;;;;;;42.88;16.88;;;;;;;3.59;67.28;102232.28;8777830;33;20194;-75
2022/01/25 12:08:49;;;;;;;38.70;16.00;;;;;;;3.36;68.86;102224.84;8777323;33;20439;-75
2022/01/25 12:14:13;;;;;;;41.40;15.63;;;;;;;3.37;68.59;102229.22;8778353;33;21135;-76
2022/01/25 12:19:19;;;;;;;43.08;16.45;;;;;;;3.60;68.24;102211.00;8777552;33;21833;-75
2022/01/25 12:24:30;;;;;;;39.28;17.88;;;;;;;3.69;67.31;102209.91;8777707;33;20174;-75
2022/01/25 12:29:37;;;;;;;36.67;15.90;;;;;;;3.69;67.32;102210.78;8776403;33;20171;-76
2022/01/25 12:35:08;;;;;;;37.05;14.95;;;;;;;3.76;67.34;102200.00;8779759;33;22984;-75
2022/01/25 12:40:31;;;;;;;35.60;15.00;;;;;;;3.61;67.36;102194.13;8750991;33;20179;-76
2022/01/25 12:45:40;;;;;;;38.95;17.48;;;;;;;3.69;68.26;102188.66;8776828;33;20182;-76
2022/01/25 12:50:47;;;;;;;36.83;15.27;;;;;;;3.65;68.30;102182.53;8776170;33;20124;-74
2022/01/25 12:55:55;;;;;;;42.58;18.65;;;;;;;3.83;68.23;102175.03;8776737;33;20187;-74
2022/01/25 13:01:02;;;;;;;36.10;16.10;;;;;;;3.65;67.70;102168.38;8776185;33;20221;-73
2022/01/25 13:06:12;;;;;;;35.70;16.83;;;;;;;3.65;68.10;102157.75;8776660;33;20638;-75
2022/01/25 13:11:50;;;;;;;40.55;18.92;;;;;;;3.69;68.71;102170.03;8776375;33;20213;-75
2022/01/25 13:16:56;;;;;;;37.22;15.65;;;;;;;3.52;67.89;102162.47;8776539;33;20186;-75
2022/01/25 13:22:03;;;;;;;41.92;14.88;;;;;;;3.65;67.31;102163.94;8776332;33;20465;-75
2022/01/25 13:27:14;;;;;;;35.60;14.95;;;;;;;3.64;67.12;102161.31;8775951;33;20433;-75
2022/01/25 13:32:23;;;;;;;30.27;13.32;;;;;;;3.76;66.81;102150.38;8776368;33;20443;-74
2022/01/25 13:37:27;;;;;;;34.78;14.98;;;;;;;3.70;66.95;102142.53;8750577;33;20139;-74
2022/01/25 13:42:41;;;;;;;33.13;13.55;;;;;;;3.48;67.70;102142.19;8775233;33;20233;-75
2022/01/25 13:47:57;;;;;;;38.63;15.80;;;;;;;3.29;68.52;102131.09;8775347;33;21061;-75
2022/01/25 13:53:01;;;;;;;38.03;16.90;;;;;;;3.28;68.52;102137.34;8774026;33;20181;-75
2022/01/25 13:58:20;;;;;;;36.17;16.23;;;;;;;3.37;68.84;102136.25;8781864;33;20193;-75
2022/01/25 14:03:26;;;;;;;40.90;16.13;;;;;;;3.59;68.63;102132.16;8807839;33;20865;-75
2022/01/25 14:08:35;;;;;;;35.25;15.32;;;;;;;3.36;68.21;102137.16;8834359;33;20247;-75
2022/01/25 14:24:30;;;;;;;33.65;15.02;;;;;;;3.47;68.50;102145.75;8834723;33;20968;-74
2022/01/25 14:29:35;;;;;;;33.13;15.30;;;;;;;3.40;68.46;102144.13;8832906;33;20166;-76
2022/01/25 14:34:38;;;;;;;34.22;14.52;;;;;;;3.26;68.71;102150.66;8835036;33;20220;-76
2022/01/25 14:39:42;;;;;;;35.60;14.55;;;;;;;3.18;69.25;102149.97;8843923;33;20207;-74
2022/01/25 14:44:47;;;;;;;34.13;15.68;;;;;;;3.16;68.96;102148.25;8820584;33;20222;-74
2022/01/25 14:49:58;;;;;;;34.38;15.13;;;;;;;3.27;68.72;102146.22;8779186;33;20205;-74
2022/01/25 14:55:02;;;;;;;36.38;15.60;;;;;;;3.44;68.77;102137.88;8797616;33;20699;-74
2022/01/25 15:00:09;;;;;;;33.10;15.25;;;;;;;3.50;68.41;102143.03;8800220;33;20316;-75
2022/01/25 15:05:12;;;;;;;35.83;16.25;;;;;;;3.49;68.66;102142.16;8805494;33;20174;-74
2022/01/25 15:10:19;;;;;;;35.67;14.20;;;;;;;3.35;68.35;102144.28;8806070;33;20920;-74
2022/01/25 15:15:27;;;;;;;32.70;16.15;;;;;;;3.28;68.65;102148.81;8794674;33;20713;-74
2022/01/25 15:20:30;;;;;;;32.95;15.02;;;;;;;3.26;68.60;102139.13;8804804;33;20186;-74
2022/01/25 15:25:34;;;;;;;40.05;15.15;;;;;;;3.26;68.99;102137.38;8807109;33;20570;-74
2022/01/25 15:30:39;;;;;;;35.42;14.20;;;;;;;3.28;68.43;102148.81;8804963;33;20178;-75
2022/01/25 15:35:42;;;;;;;32.38;14.35;;;;;;;3.25;68.45;102161.31;8789382;33;21611;-75
2022/01/25 15:40:45;;;;;;;30.88;12.82;;;;;;;3.24;68.53;102155.13;8781196;33;20144;-74
2022/01/25 15:46:02;;;;;;;33.30;14.27;;;;;;;3.06;69.06;102148.44;8778347;33;20194;-75
2022/01/25 15:51:05;;;;;;;34.00;13.40;;;;;;;3.10;69.65;102149.25;8800932;33;20751;-76
2022/01/25 15:56:08;;;;;;;35.60;15.00;;;;;;;3.08;69.51;102145.75;8804666;33;20651;-75
2022/01/25 16:01:13;;;;;;;32.13;12.93;;;;;;;2.88;69.91;102137.31;8805818;33;20423;-74
2022/01/25 16:06:17;;;;;;;32.65;12.30;;;;;;;3.00;69.55;102142.38;8805965;33;20138;-74
2022/01/25 16:11:23;;;;;;;31.38;12.25;;;;;;;3.04;68.93;102146.72;8809448;33;20185;-75
2022/01/25 16:16:27;;;;;;;30.67;13.30;;;;;;;3.02;69.10;102144.09;8775523;33;20709;-73
2022/01/25 16:21:30;;;;;;;30.73;12.60;;;;;;;2.97;69.59;102155.72;8808407;33;20446;-74
2022/01/25 16:26:34;;;;;;;31.25;13.77;;;;;;;2.84;70.16;102157.75;8805441;33;21754;-75
2022/01/25 16:31:42;;;;;;;41.80;16.60;;;;;;;2.82;70.33;102151.59;8804271;33;20359;-76
2022/01/25 16:36:46;;;;;;;42.92;16.48;;;;;;;2.87;70.28;102152.38;8808159;33;20513;-75
2022/01/25 16:41:49;;;;;;;43.45;16.42;;;;;;;2.86;70.15;102150.66;8809622;33;20592;-75
2022/01/25 16:46:54;;;;;;;42.33;15.65;;;;;;;2.87;69.84;102151.50;8804235;33;20144;-75
2022/01/25 16:51:57;;;;;;;40.20;14.80;;;;;;;2.84;70.13;102147.13;8805094;33;20388;-75
2022/01/25 16:57:00;;;;;;;34.55;15.25;;;;;;;2.86;69.93;102142.69;8804420;33;21647;-75
2022/01/25 17:02:08;;;;;;;39.17;15.70;;;;;;;2.77;70.10;102146.41;8776201;33;20171;-75
2022/01/25 17:07:12;;;;;;;34.15;15.20;;;;;;;2.84;70.29;102140.03;8804887;33;20186;-75
2022/01/25 17:12:15;;;;;;;39.47;14.85;;;;;;;2.82;69.92;102140.97;8798785;33;20202;-75
2022/01/25 17:17:39;;;;;;;37.60;15.32;;;;;;;2.74;70.40;102141.16;8777560;33;20194;-74
2022/01/25 17:22:43;;;;;;;35.65;15.68;;;;;;;2.65;71.93;102146.63;8777826;33;20193;-74
2022/01/25 17:27:46;;;;;;;36.15;14.95;;;;;;;2.56;71.07;102134.44;8776075;33;20187;-74
2022/01/25 17:32:55;;;;;;;31.00;14.55;;;;;;;2.68;70.91;102135.09;8775953;33;20179;-74
2022/01/25 17:37:58;;;;;;;35.20;16.15;;;;;;;2.63;70.68;102132.50;8776111;33;20182;-75
2022/01/25 17:43:01;;;;;;;35.40;16.40;;;;;;;2.65;70.54;102120.09;8843234;33;20158;-75
2022/01/25 17:48:06;;;;;;;34.88;14.98;;;;;;;2.63;70.66;102129.00;8768971;33;21563;-74
2022/01/25 17:53:11;;;;;;;35.78;14.63;;;;;;;2.77;70.57;102124.28;8755666;33;20429;-75
2022/01/25 17:58:15;;;;;;;30.20;13.73;;;;;;;2.81;70.03;102125.97;8748726;33;20268;-75
2022/01/25 18:03:21;;;;;;;31.45;14.73;;;;;;;2.71;70.02;102122.63;8744623;33;20832;-74
2022/01/25 18:08:24;;;;;;;29.42;14.02;;;;;;;2.75;70.01;102111.06;8775304;33;20198;-74
2022/01/25 18:13:27;;;;;;;32.55;12.68;;;;;;;2.90;69.61;102114.28;8774522;33;20183;-75
2022/01/25 18:18:32;;;;;;;31.67;12.95;;;;;;;2.86;69.36;102113.47;8749216;33;20139;-74
2022/01/25 18:23:43;;;;;;;32.28;14.00;;;;;;;2.76;69.66;102115.44;8775999;33;20514;-75
2022/01/25 18:28:47;;;;;;;35.72;14.27;;;;;;;2.70;69.73;102120.00;8775893;33;20456;-74
2022/01/25 18:33:52;;;;;;;36.33;15.77;;;;;;;2.78;69.42;102116.28;8758708;33;20187;-74
2022/01/25 18:39:01;;;;;;;34.80;14.68;;;;;;;2.80;69.55;102121.59;8745388;33;20215;-75
2022/01/25 18:44:05;;;;;;;38.75;14.57;;;;;;;2.82;69.30;102122.41;8780533;33;20604;-74
2022/01/25 18:49:09;;;;;;;24.55;12.95;;;;;;;2.74;69.39;102125.25;8799062;33;20278;-75
2022/01/25 18:54:13;;;;;;;28.63;12.52;;;;;;;2.66;69.68;102121.88;8806100;33;20220;-75
2022/01/25 18:59:18;;;;;;;30.55;12.93;;;;;;;2.76;69.35;102118.09;8805742;33;20182;-75
2022/01/25 19:04:22;;;;;;;26.70;11.43;;;;;;;2.75;69.21;102119.00;8806981;33;20178;-74
2022/01/25 19:09:25;;;;;;;27.05;12.85;;;;;;;2.78;68.79;102118.06;8787928;33;20171;-76
2022/01/25 19:14:29;;;;;;;32.60;13.07;;;;;;;2.82;69.36;102115.31;8774841;33;20687;-75
2022/01/25 19:19:33;;;;;;;31.25;13.82;;;;;;;2.84;69.63;102121.47;8774343;33;21599;-75
2022/01/25 19:24:37;;;;;;;31.75;14.30;;;;;;;2.97;69.93;102118.56;8777023;33;20648;-75
2022/01/25 19:29:40;;;;;;;35.88;14.73;;;;;;;3.00;70.14;102134.44;8779059;33;20229;-75
2022/01/25 19:34:45;;;;;;;31.33;14.27;;;;;;;2.95;70.37;102121.25;8778882;33;21101;-76
2022/01/25 19:39:49;;;;;;;35.22;14.57;;;;;;;2.90;70.00;102125.75;8777727;33;20190;-74
2022/01/25 19:44:52;;;;;;;35.55;16.05;;;;;;;2.87;70.43;102119.66;8778662;33;20274;-75
2022/01/25 19:49:56;;;;;;;34.70;14.65;;;;;;;2.95;70.15;102125.69;8778307;33;20186;-75
2022/01/25 19:54:59;;;;;;;34.45;14.93;;;;;;;2.79;69.43;102131.28;8777430;33;20160;-75
2022/01/25 20:00:06;;;;;;;34.17;14.82;;;;;;;2.61;69.32;102119.28;8777177;33;20680;-75
2022/01/25 20:05:14;;;;;;;39.05;15.15;;;;;;;2.55;70.59;102122.09;8778475;33;20162;-74
2022/01/25 20:10:19;;;;;;;33.00;14.75;;;;;;;2.51;70.42;102114.16;8778422;33;20139;-74
2022/01/25 20:15:22;;;;;;;40.08;15.30;;;;;;;2.57;70.72;102111.41;8784128;33;20186;-74
2022/01/25 20:20:31;;;;;;;36.28;15.43;;;;;;;2.41;71.03;102116.13;8799904;33;21954;-73
2022/01/25 20:25:41;;;;;;;31.60;13.77;;;;;;;2.58;70.79;102106.09;8789199;33;20127;-75
2022/01/25 20:30:58;;;;;;;39.72;14.70;;;;;;;2.56;70.89;102105.25;8802889;33;20154;-74
2022/01/25 20:36:06;;;;;;;36.13;15.27;;;;;;;2.59;70.33;102101.66;8796600;33;20213;-75
2022/01/25 20:41:10;;;;;;;36.80;15.48;;;;;;;2.38;70.54;102109.09;8801379;33;20231;-75
2022/01/25 20:46:14;;;;;;;35.83;15.02;;;;;;;2.37;70.67;102112.66;8794739;33;20962;-75
2022/01/25 20:51:19;;;;;;;28.60;13.02;;;;;;;2.44;70.88;102110.78;8776894;33;20194;-74
2022/01/25 20:56:23;;;;;;;37.67;14.73;;;;;;;2.12;71.56;102114.91;8778341;33;20278;-74
2022/01/25 21:01:30;;;;;;;35.92;14.05;;;;;;;2.18;71.25;102108.59;8787394;33;20182;-75
2022/01/25 21:06:45;;;;;;;34.47;13.93;;;;;;;2.39;69.79;102112.63;8780868;33;20526;-75
2022/01/25 21:11:51;;;;;;;34.67;14.38;;;;;;;2.33;69.85;102105.69;8776006;33;20280;-73
2022/01/25 21:16:55;;;;;;;41.95;15.23;;;;;;;2.26;71.27;102104.03;8776667;33;20192;-72
2022/01/25 21:22:00;;;;;;;41.47;15.50;;;;;;;2.14;70.79;102112.22;8775838;33;20143;-75
2022/01/25 21:27:04;;;;;;;44.15;16.90;;;;;;;2.17;70.42;102105.09;8776337;33;20424;-73
2022/01/25 21:32:08;;;;;;;52.60;18.60;;;;;;;2.06;71.33;102106.19;8774591;33;20202;-75
2022/01/25 21:37:13;;;;;;;48.50;18.33;;;;;;;2.10;72.05;102106.09;8774408;33;20147;-75
2022/01/25 21:42:17;;;;;;;43.78;18.08;;;;;;;2.23;71.19;102101.44;8775045;33;20217;-75
2022/01/25 21:47:20;;;;;;;48.75;18.42;;;;;;;2.25;71.25;102110.25;8775439;33;20179;-75
2022/01/25 21:52:24;;;;;;;49.65;18.48;;;;;;;2.33;69.96;102104.78;8774840;33;20139;-74
2022/01/25 21:57:28;;;;;;;49.67;18.55;;;;;;;2.26;69.95;102101.38;8774797;33;20209;-75
2022/01/25 22:02:32;;;;;;;49.38;19.45;;;;;;;2.25;70.70;102099.66;8774801;33;20332;-75
2022/01/25 22:07:43;;;;;;;52.83;18.85;;;;;;;2.37;70.57;102095.88;8775712;33;20186;-74
2022/01/25 22:12:50;;;;;;;53.45;18.10;;;;;;;2.16;70.64;102099.78;8764496;33;20700;-74
2022/01/25 22:17:53;;;;;;;44.40;16.75;;;;;;;2.00;70.74;102099.19;8773780;33;20288;-75
2022/01/25 22:22:58;;;;;;;44.35;17.92;;;;;;;1.94;71.56;102096.66;8775091;33;20187;-75
2022/01/25 22:28:01;;;;;;;48.83;18.13;;;;;;;2.21;71.33;102097.06;8774974;33;20186;-75
2022/01/25 22:33:04;;;;;;;48.63;19.45;;;;;;;2.33;70.58;102097.72;8773627;33;20195;-74
2022/01/25 22:38:10;;;;;;;46.70;18.45;;;;;;;2.14;71.10;102097.19;8775883;33;20295;-75
2022/01/25 22:43:27;;;;;;;42.80;16.17;;;;;;;1.63;72.03;102098.97;8774543;33;20185;-74
2022/01/25 22:48:37;;;;;;;45.85;17.23;;;;;;;2.09;70.94;102087.56;8749107;33;20250;-74
2022/01/25 22:53:41;;;;;;;45.75;17.90;;;;;;;2.26;70.32;102085.47;8774012;33;20210;-74
2022/01/25 22:58:44;;;;;;;52.20;18.27;;;;;;;2.08;70.69;102083.16;8773694;33;20297;-75
2022/01/25 23:03:47;;;;;;;48.08;18.20;;;;;;;1.80;71.58;102077.47;8777613;33;20178;-75
2022/01/25 23:08:52;;;;;;;51.10;18.00;;;;;;;1.86;71.78;102074.72;8780675;33;20178;-75
2022/01/25 23:14:01;;;;;;;49.10;18.20;;;;;;;1.73;71.35;102082.03;8766776;33;20279;-75
2022/01/25 23:19:13;;;;;;;53.55;18.67;;;;;;;1.74;71.67;102081.13;8778674;33;20265;-74
2022/01/25 23:24:18;;;;;;;49.42;18.92;;;;;;;1.90;72.26;102082.59;8779225;33;20865;-75
2022/01/25 23:29:20;;;;;;;41.03;17.38;;;;;;;1.91;72.37;102089.63;8778258;33;20880;-75
2022/01/25 23:34:47;;;;;;;48.00;17.90;;;;;;;1.97;72.03;102082.47;8778532;33;20624;-75
2022/01/25 23:39:57;;;;;;;45.47;17.38;;;;;;;2.10;71.76;102089.31;8777833;33;20221;-75
2022/01/25 23:45:04;;;;;;;53.33;19.73;;;;;;;1.99;71.85;102092.16;8778286;33;20183;-75
2022/01/25 23:50:14;;;;;;;51.78;18.88;;;;;;;1.87;71.53;102093.25;8753160;33;20187;-74
